Weather observations for the past three days for
Jacksonville Municipal Airport
Imperial (Metric)
Date Time (cdt) Wind (mph) Vis. (mi.) Weather Sky Cond. Temperature (ºF) Relative Humidity Wind Chill (°F) Heat Index (°F) Pressure Precipitation (in)
Air Dwpt 6 hour altimeter (in) sea level (mb) 1 hr 3 hr 6 hr
Max. Min.
10 07:55 N 8 10.00 Fair CLR 55 37.8 52% 30.08 0.0
10 07:35 N 8 10.00 Fair CLR 53.6 37 54% 30.07 0.0
10 07:15 NW 7 10.00 Fair CLR 52.3 37.8 58% 30.07 0.0
10 06:55 NW 6 10.00 Fair CLR 51.1 38.7 58.5 47.7 63% 30.05 0.0
10 06:35 N 7 10.00 Fair CLR 49.6 39.2 67% 47 30.04 0.0
10 06:15 N 7 10.00 Fair CLR 48.7 38.8 69% 46 30.03 0.0
10 05:55 N 5 10.00 Fair CLR 47.7 39 72% 46 30.02 0.0
10 05:35 NW 6 10.00 Fair CLR 49.3 39 68% 47 30.02 0.0
10 05:15 N 6 10.00 Fair CLR 49.8 39.2 67% 48 30.01 0.0
10 04:55 NW 7 10.00 Partly Cloudy SCT110 51.1 40.5 67% 30 0.0
10 04:35 NW 8 10.00 Fair CLR 52.5 40.1 63% 29.98 0.0
10 04:15 N 9 10.00 Fair CLR 53.6 40.6 62% 29.96 0.0
10 03:55 N 8 10.00 Fair CLR 53.2 42.8 68% 29.96 0.0
10 03:35 N 8 10.00 Partly Cloudy SCT120 54.5 42.8 65% 29.95 0.0
10 03:15 N 7 10.00 Partly Cloudy SCT120 55 43.7 66% 29.94 0.0
10 02:55 N 7 10.00 Fair CLR 55.6 44.4 66% 29.94 0.0
10 02:35 N 7 10.00 Partly Cloudy SCT100 55.9 45.3 68% 29.93 0.0
10 02:15 N 6 10.00 Mostly Cloudy BKN100 57.2 45.9 66% 29.94 0.0
10 01:35 N 6 10.00 Overcast OVC110 57.9 47.3 68% 29.94 0.0
10 01:15 NW 5 10.00 Overcast OVC120 56.8 47.7 72% 29.94 0.0
10 00:55 NW 3 10.00 Mostly Cloudy SCT090 BKN120 58.1 47.3 76.6 57.9 67% 29.94 0.0
10 00:35 NW 3 10.00 Mostly Cloudy SCT090 BKN120 59.9 46.8 62% 29.93 0.0
10 00:15 SW 5 10.00 Mostly Cloudy SCT090 BKN120 59.5 48.7 68% 29.92 0.0
09 23:55 SW 5 10.00 Mostly Cloudy BKN090 61.9 46.6 57% 29.91 0.0
09 23:35 SW 5 10.00 Overcast OVC090 62.1 48 60% 29.9 0.0
09 23:15 NW 3 10.00 Overcast OVC090 62.6 47.8 59% 29.9 0.0
09 22:55 NW 5 10.00 Overcast OVC090 63.9 45.9 52% 29.89 0.0
09 22:35 NW 7 10.00 Overcast OVC100 64.8 45.3 50% 29.88 0.0
09 22:15 N 9 10.00 Overcast OVC100 65.3 46 50% 29.87 0.0
09 21:55 NW 8 10.00 Overcast OVC100 65.3 46.6 51% 29.86 0.0
09 21:35 N 9 10.00 Overcast OVC110 65.3 47.3 52% 29.85 0.0
09 21:15 N 8 10.00 Mostly Cloudy BKN110 66.6 45.9 47% 29.82 0.0
09 20:55 N 9 10.00 Fair CLR 67.1 46.6 48% 29.8 0.0
09 20:35 Calm 10.00 Partly Cloudy SCT120 64.4 49.8 59% 29.78 0.0
09 20:15 S 5 10.00 Partly Cloudy SCT120 64.6 50.9 61% 29.77 0.0
09 19:55 W 3 10.00 Fair CLR 69.6 46.9 44% 29.77 0.0
09 19:35 W 5 10.00 Fair CLR 71.6 46.4 41% 29.77 0.0
09 19:15 W 5 10.00 Fair CLR 75.2 45 34% 77 29.76 0.0
09 18:55 W 6 10.00 Fair CLR 76.8 43.3 79 71.8 30% 78 29.75 0.0
09 18:35 W 8 10.00 Fair CLR 77.9 44.1 30% 78 29.76 0.0
09 18:15 W 8 10.00 Fair CLR 78.3 43.3 29% 78 29.76 0.0
09 17:55 W 13 G 17 10.00 Fair CLR 78.3 42.3 28% 78 29.75 0.0
09 17:35 W 9 10.00 Fair CLR 77.5 42.1 28% 78 29.75 0.0
09 17:15 W 7 10.00 Fair CLR 78.8 42.4 27% 78 29.75 0.0
09 16:55 W 7 G 16 10.00 Fair CLR 78.6 42.6 28% 78 29.75 0.0
09 16:35 W 12 10.00 Fair CLR 78.4 43.9 29% 78 29.75 0.0
09 16:15 NW 7 10.00 Fair CLR 78.1 43.9 30% 78 29.75 0.0
09 15:55 W 16 G 20 10.00 Fair CLR 78.4 44.6 30% 78 29.75 0.0
09 15:35 NW 10 G 21 10.00 Fair CLR 77.5 43.5 30% 78 29.76 0.0
09 15:15 NW 14 G 20 10.00 Partly Cloudy SCT070 77.9 45.1 31% 78 29.76 0.0
09 14:55 W 13 G 16 10.00 Fair CLR 77.5 50.2 38% 78 29.77 0.0
09 14:35 W 8 G 20 10.00 Fair CLR 75.9 48.7 38% 78 29.77 0.0
09 14:15 SW 12 G 18 10.00 Fair CLR 75.9 51.8 43% 78 29.77 0.0
09 13:55 W 14 G 21 10.00 Fair CLR 75.2 50.7 42% 78 29.77 0.0
09 13:35 W 14 10.00 Fair CLR 74.7 54.1 49% 29.77 0.0
09 13:15 SW 12 10.00 Fair CLR 72.7 54.3 53% 29.77 0.0
09 12:35 SW 14 10.00 Fair CLR 70.9 56.5 61% 29.78 0.0
09 12:15 W 13 G 17 10.00 Fair CLR 69.4 56.7 64% 29.78 0.0
09 11:55 W 14 G 18 10.00 Fair CLR 68.5 56.5 66% 29.78 0.0
09 11:35 SW 12 G 18 10.00 Fair CLR 66.9 56.5 69% 29.77 0.0
09 11:15 SW 14 10.00 Fair CLR 65.5 56.1 72% 29.77 0.0
09 10:55 SW 10 10.00 Fair CLR 64.8 56.5 75% 29.77 0.0
09 10:35 W 10 10.00 Fair CLR 63.9 56.1 76% 29.77 0.0
09 10:15 SW 10 10.00 Fair CLR 61.5 57 85% 29.76 0.0
09 09:55 SW 13 10.00 Partly Cloudy SCT012 57.9 57.9 100% 29.77 0.0
09 09:35 SW 13 10.00 Partly Cloudy SCT006 0 0 0% 29.77 0.0
09 09:15 SW 12 G 18 10.00 Overcast OVC006 55.8 55.8 100% 29.77 0.0
09 08:55 SW 13 G 18 10.00 Overcast OVC006 54.7 54.7 100% 29.77 0.0
09 08:35 SW 14 10.00 Overcast OVC004 53.8 53.8 100% 29.76 0.0
09 08:15 SW 10 10.00 Overcast OVC004 53.1 53.1 100% 29.76 0.0
09 07:55 SW 13 7.00 Overcast OVC002 52.5 52.5 100% 29.76 0.0
09 07:35 SW 12 1.75 Overcast OVC002 51.8 51.8 100% 29.77 0.0
09 07:15 SW 12 0.50 Overcast OVC002 51.8 51.8 100% 29.77 0.0
09 06:55 SW 9 0.25 Overcast OVC002 51.1 51.1 51.8 49.6 100% 29.76 0.0 0.01
09 06:35 SW 8 0.50 Overcast OVC002 50.4 50.4 100% 29.76 0.0
09 06:15 SW 8 5.00 Mostly Cloudy BKN002 50 50 100% 47 29.75 0.0
09 05:55 SW 8 7.00 Fair CLR 50 50 100% 47 29.75 0.0 0.01
09 05:35 SW 7 7.00 Fair CLR 50.4 50.4 100% 29.75 0.0 0.01
09 05:15 S 8 10.00 Fair CLR 50.7 50.7 100% 29.74 0.0 0.01
09 04:55 S 9 7.00 Fair CLR 50 50 100% 47 29.74 0.0
09 04:35 S 7 10.00 Fair CLR 50.2 50.2 100% 29.75 0.0
09 04:15 SW 7 10.00 Fair CLR 50.5 50.5 100% 29.75 0.0
09 03:55 S 7 10.00 Partly Cloudy SCT002 50.5 50.5 100% 29.75 0.0
09 03:35 S 6 4.00 Mostly Cloudy BKN002 50.7 50.7 100% 29.75 0.0
09 02:55 S 6 10.00 Fair CLR 50.2 50.2 100% 29.74 0.0
09 02:35 S 5 10.00 Fair CLR 50.9 50.9 100% 29.74 0.0
09 02:15 S 5 7.00 Fair CLR 50.2 50.2 100% 29.75 0.0
09 01:55 S 5 10.00 Fair CLR 51.1 51.1 100% 29.75 0.0
09 01:35 S 6 5.00 Fair CLR 50.7 50.7 100% 29.75 0.0
09 01:15 SW 5 1.00 Sky Obscured VV007 51.1 51.1 100% 29.75 0.0
09 00:55 SW 5 5.00 Fair CLR 52 52 55.6 51.8 100% 29.75 0.0
09 00:35 SW 5 7.00 Fair CLR 52.7 52.7 100% 29.76 0.0
09 00:15 W 3 10.00 Fair CLR 53.1 53.1 100% 29.77 0.0
08 23:55 SW 6 10.00 Fair CLR 54 54 100% 29.77 0.0
08 23:35 SW 5 10.00 Fair CLR 53.6 53.6 100% 29.77 0.0
08 23:15 S 7 10.00 Fair CLR 53.4 53.4 100% 29.77 0.0
08 22:55 S 6 10.00 Fair CLR 53.1 53.1 100% 29.78 0.0
08 22:35 S 5 10.00 Fair CLR 53.4 53.4 100% 29.78 0.0
08 22:15 Calm 10.00 Fair CLR 54.3 54.3 100% 29.79 0.0
08 21:55 Calm 10.00 Fair CLR 54.5 54.5 100% 29.79 0.0
08 21:35 SW 3 10.00 Fair CLR 54.5 54.5 100% 29.78 0.0
08 21:15 Calm 10.00 Fair CLR 54.5 54.5 100% 29.78 0.0
08 20:55 SW 5 10.00 Fair CLR 54.9 54.9 100% 29.78 0.0
08 20:35 SW 6 10.00 Fair CLR 54.9 54.9 100% 29.78 0.0
08 20:15 SW 6 10.00 Partly Cloudy SCT050 55 55 100% 29.77 0.0
08 19:55 SW 7 10.00 Partly Cloudy SCT055 55.4 55.4 100% 29.78 0.0
08 19:35 SW 6 10.00 Mostly Cloudy BKN055 55.4 55.4 100% 29.77 0.0
08 19:15 SW 6 10.00 Partly Cloudy SCT055 SCT080 55.4 55.4 100% 29.77 0.0
08 18:55 SW 7 10.00 Mostly Cloudy BKN080 55.6 55.6 66.4 55.4 100% 29.77 0.0 0.07
08 18:35 SW 6 10.00 Mostly Cloudy SCT070 BKN080 BKN100 55.8 55.8 100% 29.78 0.0
08 18:15 S 10 10.00 Overcast BKN075 OVC100 55.8 55.8 100% 29.78 0.0
08 17:55 S 10 10.00 Overcast SCT070 OVC075 55.4 55.4 100% 29.77 0.0 0.02
08 17:35 S 6 7.00 Overcast BKN060 OVC080 55.9 55.9 100% 29.78 0.0 0.02
08 17:15 S 7 7.00 Overcast BKN060 OVC075 56.5 56.5 100% 29.79 0.0 0.01
08 16:55 S 8 10.00 Overcast OVC075 56.5 56.5 100% 29.8 0.0 0.03
08 16:35 S 8 10.00 Overcast SCT070 OVC080 56.8 54.1 91% 29.8 0.0 0.02
08 16:15 S 9 10.00 Overcast SCT070 OVC080 57.2 53.2 87% 29.82 0.0 0.02
08 15:55 SW 8 10.00 Overcast OVC080 57.9 52.9 83% 29.82 0.0 0.01 0.02
08 15:35 SW 8 10.00 Overcast SCT070 OVC080 58.3 53.4 84% 29.83 0.0 0.01
08 15:15 SW 10 10.00 Overcast OVC080 58.6 52.9 81% 29.83 0.0 0.01
08 14:55 S 7 10.00 Overcast SCT065 OVC080 59.9 53.1 78% 29.82 0.0
08 14:35 Calm 10.00 Overcast SCT065 OVC080 61.2 49.3 65% 29.8 0.0
08 14:15 NW 3 10.00 Overcast SCT033 SCT050 OVC080 61.9 48.9 63% 29.81 0.0
08 13:55 NW 6 10.00 Overcast SCT034 BKN070 OVC080 61.5 50.9 68% 29.81 0.0 0.01
08 13:35 W 7 10.00 Overcast SCT048 SCT070 OVC090 61.7 49.3 64% 29.83 0.0
08 13:15 W 12 G 16 10.00 Mostly Cloudy BKN090 BKN120 64.6 46.9 53% 29.84 0.0
08 12:55 SW 10 10.00 Partly Cloudy SCT090 SCT120 65.8 47.5 66.2 52.5 52% 29.82 0.0
08 12:35 W 10 10.00 Overcast BKN090 OVC110 65.8 47.5 52% 29.83 0.0
08 12:15 W 8 10.00 Overcast OVC090 63.9 48 57% 29.84 0.0
08 11:55 W 7 10.00 Overcast OVC090 62.6 47.3 58% 29.85 0.0
08 11:35 W 8 10.00 Overcast OVC090 62.1 47.3 59% 29.85 0.0
08 11:15 SW 8 10.00 Overcast OVC100 61.7 46.9 59% 29.86 0.0
08 10:55 SW 12 10.00 Overcast OVC100 61.7 46.4 57% 29.87 0.0
08 10:35 SW 10 10.00 Overcast OVC100 61.9 46 56% 29.87 0.0
08 10:15 W 15 G 20 10.00 Mostly Cloudy BKN100 BKN120 63 45.3 53% 29.87 0.0
08 09:55 SW 15 G 20 10.00 Partly Cloudy SCT100 63.9 45.7 52% 29.87 0.0
08 09:35 SW 14 G 23 10.00 Fair CLR 62.6 45.7 54% 29.87 0.0
08 09:15 SW 14 G 21 10.00 Fair CLR 61.2 45.3 56% 29.87 0.0
08 08:55 SW 10 G 17 10.00 Partly Cloudy SCT110 59.2 45.5 61% 29.87 0.0
08 08:35 SW 10 10.00 Fair CLR 57 44.6 63% 29.88 0.0
08 08:15 SW 12 G 16 10.00 Fair CLR 56.8 44.4 63% 29.88 0.0
08 07:55 SW 12 10.00 Partly Cloudy SCT120 55.8 44.2 65% 29.88 0.0
08 07:35 S 10 10.00 Partly Cloudy SCT120 53.8 43.9 69% 29.87 0.0
08 07:15 S 12 10.00 Partly Cloudy SCT110 52.9 43.3 70% 29.87 0.0
08 06:55 S 10 10.00 Mostly Cloudy BKN110 52.3 43.2 55 49.6 71% 29.87 0.0
08 06:35 S 8 10.00 Mostly Cloudy BKN110 50.9 42.8 74% 29.86 0.0
08 06:15 S 8 10.00 Fair CLR 50 41.9 74% 47 29.86 0.0
08 05:55 S 7 10.00 Fair CLR 50 42.1 74% 48 29.85 0.0
08 05:35 S 9 10.00 Fair CLR 50.2 41.9 73% 29.85 0.0
08 05:15 S 8 10.00 Fair CLR 50.4 42.1 73% 29.85 0.0
08 04:55 S 8 10.00 Fair CLR 50.5 41.9 72% 29.85 0.0
08 04:35 S 7 10.00 Fair CLR 50.5 42.1 73% 29.85 0.0
08 04:15 S 7 10.00 Fair CLR 50.5 42.1 73% 29.86 0.0
08 03:55 S 7 10.00 Fair CLR 51.3 42.1 71% 29.86 0.0
08 03:35 S 8 10.00 Fair CLR 51.1 42.3 72% 29.86 0.0
08 03:15 S 7 10.00 Fair CLR 51.8 42.1 70% 29.86 0.0
08 02:55 S 7 10.00 Fair CLR 52 41.9 69% 29.87 0.0
08 02:35 S 7 10.00 Mostly Cloudy SCT090 BKN110 52.3 42.1 68% 29.88 0.0
08 02:15 S 8 10.00 Overcast BKN090 OVC110 53.6 42.4 66% 29.88 0.0
08 01:55 S 8 10.00 Overcast BKN090 OVC110 53.8 42.1 65% 29.89 0.0
08 01:35 S 8 10.00 Mostly Cloudy BKN090 BKN110 54.5 42.1 63% 29.89 0.0
08 01:15 S 7 10.00 Overcast BKN090 OVC110 54.5 42.3 64% 29.9 0.0
08 00:55 S 7 10.00 Overcast OVC110 54.9 42.1 64.4 53.1 62% 29.9 0.0
08 00:35 S 8 10.00 Overcast OVC110 54.5 42.8 65% 29.91 0.0
08 00:15 S 8 10.00 Mostly Cloudy BKN100 54.7 42.3 63% 29.91 0.0
07 23:55 S 7 10.00 Fair CLR 53.4 42.3 66% 29.91 0.0
07 23:35 S 8 10.00 Fair CLR 53.8 42.6 66% 29.91 0.0
07 23:15 S 7 10.00 Fair CLR 53.6 42.4 66% 29.9 0.0
07 22:55 S 6 10.00 Fair CLR 53.6 42.6 67% 29.9 0.0
07 22:35 S 6 10.00 Fair CLR 53.8 42.8 67% 29.9 0.0
07 22:15 S 5 10.00 Fair CLR 54.7 42.3 63% 29.9 0.0
07 21:55 S 5 10.00 Fair CLR 55.4 42.3 61% 29.9 0.0
07 21:35 S 5 10.00 Fair CLR 55.2 42.4 62% 29.9 0.0
07 21:15 SW 5 10.00 Fair CLR 55.9 42.8 62% 29.9 0.0
07 20:55 SW 6 10.00 Fair CLR 57.2 42.8 59% 29.89 0.0
07 20:35 SW 7 10.00 Fair CLR 59.2 42.3 54% 29.88 0.0
07 20:15 SW 8 10.00 Fair CLR 60.6 41.9 50% 29.88 0.0
07 19:55 SW 8 10.00 Fair CLR 61.3 41.9 49% 29.88 0.0
07 19:35 SW 12 10.00 Fair CLR 62.6 42.1 47% 29.87 0.0
07 19:15 SW 14 G 21 10.00 Fair CLR 63.5 41.9 45% 29.87 0.0
07 18:55 SW 14 G 23 10.00 Fair CLR 64.4 41.4 67.3 63.1 43% 29.87 0.0
07 18:35 SW 14 G 24 10.00 Fair CLR 65.1 41.5 42% 29.87 0.0
07 18:15 SW 15 G 20 10.00 Partly Cloudy SCT080 65.7 41.4 41% 29.87 0.0
07 17:55 SW 15 G 23 10.00 Partly Cloudy SCT065 SCT080 65.5 40.5 40% 29.88 0.0
07 17:35 W 20 G 26 10.00 Partly Cloudy SCT070 SCT080 66.6 40.1 38% 29.88 0.0
07 17:15 SW 16 G 23 10.00 Fair CLR 65.5 39.4 38% 29.88 0.0
07 16:55 SW 16 G 22 10.00 Partly Cloudy SCT070 SCT090 67.3 39.4 36% 29.88 0.0
07 16:35 SW 15 G 21 10.00 Partly Cloudy SCT070 SCT090 66.9 38.8 36% 29.88 0.0
07 16:15 W 16 G 28 10.00 Fair CLR 66.9 39.2 36% 29.88 0.0
07 15:55 SW 20 G 28 10.00 Partly Cloudy SCT065 SCT080 SCT100 66.9 38.7 36% 29.89 0.0
07 15:35 W 15 G 26 10.00 Partly Cloudy SCT065 SCT100 66.9 39.4 37% 29.9 0.0
07 15:15 SW 17 G 28 10.00 Mostly Cloudy SCT065 BKN090 BKN110 65.3 38.5 37% 29.91 0.0
07 14:55 SW 20 G 26 10.00 Mostly Cloudy SCT065 SCT090 BKN120 66.6 39.2 37% 29.91 0.0
07 14:35 W 15 G 22 10.00 Mostly Cloudy SCT065 SCT090 BKN120 65.3 37.6 36% 29.92 0.0
07 14:15 SW 22 G 29 10.00 Mostly Cloudy and Breezy SCT065 BKN085 BKN110 65.1 39.6 39% 29.93 0.0
07 13:55 SW 16 G 21 10.00 Partly Cloudy SCT065 SCT090 64.9 40.6 41% 29.94 0.0
07 13:35 SW 13 G 25 10.00 Partly Cloudy SCT065 64.4 39.7 40% 29.94 0.0
07 13:15 W 18 G 25 10.00 Partly Cloudy SCT065 63.5 38.1 39% 29.95 0.0
07 12:55 SW 15 G 22 10.00 Fair CLR 63.5 39.7 63.9 44.4 42% 29.96 0.0
07 12:35 W 16 G 23 10.00 Fair CLR 62.8 39.2 42% 29.97 0.0
07 12:15 SW 15 G 22 10.00 Fair CLR 62.6 40.5 44% 29.98 0.0
07 11:55 SW 15 G 23 10.00 Fair CLR 61.2 38.7 44% 29.99 0.0
07 11:35 W 14 G 22 10.00 Fair CLR 61.2 38.8 44% 29.99 0.0
07 11:15 SW 17 G 23 10.00 Fair CLR 60.4 37.8 43% 29.99 0.0
07 10:55 SW 16 G 22 10.00 Fair CLR 60.1 37.8 44% 29.99 0.0
07 10:35 SW 15 10.00 Fair CLR 58.8 37.8 46% 30 0.0
07 10:15 SW 14 G 22 10.00 Fair CLR 58.3 37.8 47% 30.01 0.0
07 09:55 SW 17 G 21 10.00 Fair CLR 57.2 36.7 46% 30.01 0.0
07 09:35 SW 13 10.00 Fair CLR 56.5 37.9 50% 30.02 0.0
07 09:15 SW 15 10.00 Fair CLR 54.7 37 52% 30.03 0.0
07 08:55 SW 12 10.00 Fair CLR 53.6 38.5 57% 30.03 0.0
07 08:35 SW 9 10.00 Fair CLR 51.8 37.9 59% 30.03 0.0
07 08:15 SW 12 10.00 Fair CLR 50.7 37.4 60% 30.03 0.0
Date Time (cdt) Wind (mph) Vis. (mi.) Weather Sky Cond. Air Dwpt Max. Min. Relative Humidity Wind Chill (°F) Heat Index (°F) altimeter (in) sea level (mb) 1 hr 3 hr 6 hr
6 hour
Temperature (ºF) Pressure Precipitation (in)